sensor_id;sensor_type;location;lat;lon;timestamp;pressure;altitude;pressure_sealevel;temperature;humidity
76311;BME280;65120;59.304;18.294;2023-01-04T00:02:06;102170.22;;;-2.86;72.03
76311;BME280;65120;59.304;18.294;2023-01-04T00:04:33;102173.63;;;-2.85;71.72
76311;BME280;65120;59.304;18.294;2023-01-04T00:07:01;102174.44;;;-2.86;71.89
76311;BME280;65120;59.304;18.294;2023-01-04T00:09:28;102183.69;;;-2.88;71.76
76311;BME280;65120;59.304;18.294;2023-01-04T00:11:55;102174.09;;;-2.92;71.86
76311;BME280;65120;59.304;18.294;2023-01-04T00:14:22;102188.56;;;-2.93;71.73
76311;BME280;65120;59.304;18.294;2023-01-04T00:16:49;102183.34;;;-2.95;71.71
76311;BME280;65120;59.304;18.294;2023-01-04T00:19:15;102176.47;;;-2.96;71.77
76311;BME280;65120;59.304;18.294;2023-01-04T00:21:42;102165.97;;;-3.00;71.75
76311;BME280;65120;59.304;18.294;2023-01-04T00:24:11;102176.28;;;-2.99;71.62
76311;BME280;65120;59.304;18.294;2023-01-04T00:26:40;102181.94;;;-3.04;71.51
76311;BME280;65120;59.304;18.294;2023-01-04T00:29:10;102192.16;;;-3.04;71.69
76311;BME280;65120;59.304;18.294;2023-01-04T00:31:38;102190.38;;;-3.05;71.39
76311;BME280;65120;59.304;18.294;2023-01-04T00:34:05;102185.94;;;-3.08;71.78
76311;BME280;65120;59.304;18.294;2023-01-04T00:36:33;102180.84;;;-3.08;72.04
76311;BME280;65120;59.304;18.294;2023-01-04T00:39:00;102184.19;;;-3.09;71.85
76311;BME280;65120;59.304;18.294;2023-01-04T00:41:37;102184.03;;;-3.12;71.72
76311;BME280;65120;59.304;18.294;2023-01-04T00:44:06;102185.00;;;-3.10;71.63
76311;BME280;65120;59.304;18.294;2023-01-04T00:46:33;102185.78;;;-3.11;71.67
76311;BME280;65120;59.304;18.294;2023-01-04T00:49:01;102189.19;;;-3.10;71.68
76311;BME280;65120;59.304;18.294;2023-01-04T00:51:30;102186.66;;;-3.10;71.82
76311;BME280;65120;59.304;18.294;2023-01-04T00:53:58;102190.13;;;-3.10;71.63
76311;BME280;65120;59.304;18.294;2023-01-04T00:56:26;102188.31;;;-3.11;71.62
76311;BME280;65120;59.304;18.294;2023-01-04T00:58:55;102184.72;;;-3.14;71.68
76311;BME280;65120;59.304;18.294;2023-01-04T01:01:23;102194.25;;;-3.12;71.73
76311;BME280;65120;59.304;18.294;2023-01-04T01:03:51;102186.38;;;-3.15;71.51
76311;BME280;65120;59.304;18.294;2023-01-04T01:06:20;102194.94;;;-3.14;71.73
76311;BME280;65120;59.304;18.294;2023-01-04T01:08:47;102192.28;;;-3.16;71.75
76311;BME280;65120;59.304;18.294;2023-01-04T01:11:14;102196.63;;;-3.15;71.67
76311;BME280;65120;59.304;18.294;2023-01-04T01:13:41;102188.06;;;-3.15;70.96
76311;BME280;65120;59.304;18.294;2023-01-04T01:16:10;102196.50;;;-3.17;71.63
76311;BME280;65120;59.304;18.294;2023-01-04T01:18:40;102189.63;;;-3.18;71.73
76311;BME280;65120;59.304;18.294;2023-01-04T01:21:08;102189.53;;;-3.19;71.54
76311;BME280;65120;59.304;18.294;2023-01-04T01:23:35;102195.44;;;-3.20;71.59
76311;BME280;65120;59.304;18.294;2023-01-04T01:26:03;102192.09;;;-3.19;71.68
76311;BME280;65120;59.304;18.294;2023-01-04T01:28:32;102194.56;;;-3.21;71.81
76311;BME280;65120;59.304;18.294;2023-01-04T01:31:04;102191.91;;;-3.22;71.65
76311;BME280;65120;59.304;18.294;2023-01-04T01:33:34;102196.16;;;-3.23;71.74
76311;BME280;65120;59.304;18.294;2023-01-04T01:36:02;102198.63;;;-3.24;71.63
76311;BME280;65120;59.304;18.294;2023-01-04T01:38:29;102198.63;;;-3.24;71.47
76311;BME280;65120;59.304;18.294;2023-01-04T01:40:56;102196.84;;;-3.25;71.59
76311;BME280;65120;59.304;18.294;2023-01-04T01:43:47;102196.84;;;-3.25;71.02
76311;BME280;65120;59.304;18.294;2023-01-04T01:46:15;102206.19;;;-3.26;71.60
76311;BME280;65120;59.304;18.294;2023-01-04T01:48:45;102197.63;;;-3.26;71.49
76311;BME280;65120;59.304;18.294;2023-01-04T01:51:14;102196.66;;;-3.28;71.41
76311;BME280;65120;59.304;18.294;2023-01-04T01:53:43;102186.94;;;-3.34;71.69
76311;BME280;65120;59.304;18.294;2023-01-04T01:56:11;102188.00;;;-3.30;71.50
76311;BME280;65120;59.304;18.294;2023-01-04T01:58:44;102186.25;;;-3.31;71.42
76311;BME280;65120;59.304;18.294;2023-01-04T02:01:14;102178.50;;;-3.33;71.38
76311;BME280;65120;59.304;18.294;2023-01-04T02:03:42;102172.31;;;-3.36;71.71
76311;BME280;65120;59.304;18.294;2023-01-04T02:06:12;102186.06;;;-3.34;71.43
76311;BME280;65120;59.304;18.294;2023-01-04T02:08:41;102173.19;;;-3.36;71.45
76311;BME280;65120;59.304;18.294;2023-01-04T02:11:09;102171.34;;;-3.38;71.43
76311;BME280;65120;59.304;18.294;2023-01-04T02:13:38;102170.38;;;-3.41;71.40
76311;BME280;65120;59.304;18.294;2023-01-04T02:16:32;102180.50;;;-3.42;71.56
76311;BME280;65120;59.304;18.294;2023-01-04T02:19:11;102178.63;;;-3.45;71.24
76311;BME280;65120;59.304;18.294;2023-01-04T02:22:00;102177.84;;;-3.44;71.46
76311;BME280;65120;59.304;18.294;2023-01-04T02:24:43;102179.31;;;-3.47;71.19
76311;BME280;65120;59.304;18.294;2023-01-04T02:27:34;102180.91;;;-3.49;71.48
76311;BME280;65120;59.304;18.294;2023-01-04T02:30:21;102175.69;;;-3.51;71.23
76311;BME280;65120;59.304;18.294;2023-01-04T02:33:08;102174.53;;;-3.56;71.11
76311;BME280;65120;59.304;18.294;2023-01-04T02:35:50;102171.78;;;-3.59;71.26
76311;BME280;65120;59.304;18.294;2023-01-04T02:38:24;102171.97;;;-3.56;71.44
76311;BME280;65120;59.304;18.294;2023-01-04T02:41:01;102169.34;;;-3.57;71.44
76311;BME280;65120;59.304;18.294;2023-01-04T02:43:34;102167.47;;;-3.60;71.31
76311;BME280;65120;59.304;18.294;2023-01-04T02:46:26;102164.81;;;-3.62;70.89
76311;BME280;65120;59.304;18.294;2023-01-04T02:48:59;102166.44;;;-3.64;71.19
76311;BME280;65120;59.304;18.294;2023-01-04T02:51:44;102175.75;;;-3.64;71.03
76311;BME280;65120;59.304;18.294;2023-01-04T02:54:14;102173.00;;;-3.67;71.28
76311;BME280;65120;59.304;18.294;2023-01-04T02:56:53;102175.53;;;-3.67;71.06
76311;BME280;65120;59.304;18.294;2023-01-04T02:59:38;102173.78;;;-3.68;71.09
76311;BME280;65120;59.304;18.294;2023-01-04T03:02:32;102176.06;;;-3.73;71.10
76311;BME280;65120;59.304;18.294;2023-01-04T03:05:25;102174.28;;;-3.74;71.27
76311;BME280;65120;59.304;18.294;2023-01-04T03:08:15;102163.72;;;-3.80;71.02
76311;BME280;65120;59.304;18.294;2023-01-04T03:10:48;102168.13;;;-3.77;71.10
76311;BME280;65120;59.304;18.294;2023-01-04T03:13:23;102159.28;;;-3.82;71.24
76311;BME280;65120;59.304;18.294;2023-01-04T03:15:53;102147.50;;;-3.80;71.31
76311;BME280;65120;59.304;18.294;2023-01-04T03:18:23;102141.41;;;-3.82;71.21
76311;BME280;65120;59.304;18.294;2023-01-04T03:20:55;102143.97;;;-3.82;71.19
76311;BME280;65120;59.304;18.294;2023-01-04T03:23:25;102143.78;;;-3.86;71.04
76311;BME280;65120;59.304;18.294;2023-01-04T03:26:13;102138.56;;;-3.87;71.40
76311;BME280;65120;59.304;18.294;2023-01-04T03:29:04;102136.75;;;-3.90;71.30
76311;BME280;65120;59.304;18.294;2023-01-04T03:31:55;102125.63;;;-3.90;70.97
76311;BME280;65120;59.304;18.294;2023-01-04T03:34:41;102119.44;;;-3.94;70.90
76311;BME280;65120;59.304;18.294;2023-01-04T03:37:31;102110.91;;;-3.94;71.28
76311;BME280;65120;59.304;18.294;2023-01-04T03:40:12;102111.72;;;-3.95;71.28
76311;BME280;65120;59.304;18.294;2023-01-04T03:43:06;102119.19;;;-3.98;71.39
76311;BME280;65120;59.304;18.294;2023-01-04T03:45:55;102114.84;;;-3.99;71.28
76311;BME280;65120;59.304;18.294;2023-01-04T03:48:43;102116.41;;;-4.01;71.36
76311;BME280;65120;59.304;18.294;2023-01-04T03:51:14;102109.47;;;-4.04;70.97
76311;BME280;65120;59.304;18.294;2023-01-04T03:53:50;102105.13;;;-4.05;71.14
76311;BME280;65120;59.304;18.294;2023-01-04T03:56:20;102093.75;;;-4.10;70.88
76311;BME280;65120;59.304;18.294;2023-01-04T03:58:48;102093.88;;;-4.09;71.00
76311;BME280;65120;59.304;18.294;2023-01-04T04:01:17;102087.88;;;-4.09;71.11
76311;BME280;65120;59.304;18.294;2023-01-04T04:03:45;102093.00;;;-4.09;71.08
76311;BME280;65120;59.304;18.294;2023-01-04T04:06:29;102089.44;;;-4.11;71.38
76311;BME280;65120;59.304;18.294;2023-01-04T04:09:15;102095.34;;;-4.12;71.23
76311;BME280;65120;59.304;18.294;2023-01-04T04:11:42;102091.91;;;-4.13;71.33
76311;BME280;65120;59.304;18.294;2023-01-04T04:14:09;102091.91;;;-4.13;71.00
76311;BME280;65120;59.304;18.294;2023-01-04T04:16:36;102079.94;;;-4.14;71.19
76311;BME280;65120;59.304;18.294;2023-01-04T04:19:03;102075.72;;;-4.13;71.11
76311;BME280;65120;59.304;18.294;2023-01-04T04:21:29;102059.44;;;-4.15;71.04
76311;BME280;65120;59.304;18.294;2023-01-04T04:23:56;102062.06;;;-4.14;71.01
76311;BME280;65120;59.304;18.294;2023-01-04T04:26:25;102071.28;;;-4.16;71.07
76311;BME280;65120;59.304;18.294;2023-01-04T04:28:51;102071.28;;;-4.16;71.41
76311;BME280;65120;59.304;18.294;2023-01-04T04:31:18;102067.88;;;-4.16;71.16
76311;BME280;65120;59.304;18.294;2023-01-04T04:33:45;102064.56;;;-4.15;71.25
76311;BME280;65120;59.304;18.294;2023-01-04T04:36:12;102070.41;;;-4.16;71.01
76311;BME280;65120;59.304;18.294;2023-01-04T04:38:39;102067.78;;;-4.18;71.14
76311;BME280;65120;59.304;18.294;2023-01-04T04:41:07;102071.91;;;-4.20;70.84
76311;BME280;65120;59.304;18.294;2023-01-04T04:43:53;102066.91;;;-4.18;71.06
76311;BME280;65120;59.304;18.294;2023-01-04T04:46:20;102073.59;;;-4.20;71.12
76311;BME280;65120;59.304;18.294;2023-01-04T04:48:47;102071.78;;;-4.21;71.34
76311;BME280;65120;59.304;18.294;2023-01-04T04:51:14;102071.72;;;-4.23;70.62
76311;BME280;65120;59.304;18.294;2023-01-04T04:53:41;102071.59;;;-4.24;70.85
76311;BME280;65120;59.304;18.294;2023-01-04T04:56:09;102071.59;;;-4.24;70.93
76311;BME280;65120;59.304;18.294;2023-01-04T04:58:36;102069.06;;;-4.24;71.06
76311;BME280;65120;59.304;18.294;2023-01-04T05:01:05;102069.84;;;-4.25;70.82
76311;BME280;65120;59.304;18.294;2023-01-04T05:03:32;102067.31;;;-4.25;71.07
76311;BME280;65120;59.304;18.294;2023-01-04T05:06:00;102073.19;;;-4.26;70.95
76311;BME280;65120;59.304;18.294;2023-01-04T05:08:27;102068.09;;;-4.26;71.26
76311;BME280;65120;59.304;18.294;2023-01-04T05:10:54;102068.09;;;-4.26;71.33
76311;BME280;65120;59.304;18.294;2023-01-04T05:13:21;102066.44;;;-4.26;71.35
76311;BME280;65120;59.304;18.294;2023-01-04T05:15:49;102066.44;;;-4.26;71.22
76311;BME280;65120;59.304;18.294;2023-01-04T05:18:20;102057.91;;;-4.26;71.33
76311;BME280;65120;59.304;18.294;2023-01-04T05:20:47;102058.09;;;-4.23;71.06
76311;BME280;65120;59.304;18.294;2023-01-04T05:23:16;102059.84;;;-4.22;71.40
76311;BME280;65120;59.304;18.294;2023-01-04T05:25:44;102057.28;;;-4.22;71.76
76311;BME280;65120;59.304;18.294;2023-01-04T05:28:11;102056.47;;;-4.21;71.32
76311;BME280;65120;59.304;18.294;2023-01-04T05:30:38;102057.41;;;-4.21;71.64
76311;BME280;65120;59.304;18.294;2023-01-04T05:33:18;102064.25;;;-4.20;71.30
76311;BME280;65120;59.304;18.294;2023-01-04T05:35:46;102066.81;;;-4.20;71.60
76311;BME280;65120;59.304;18.294;2023-01-04T05:38:13;102059.16;;;-4.20;71.55
76311;BME280;65120;59.304;18.294;2023-01-04T05:40:40;102048.06;;;-4.20;71.58
76311;BME280;65120;59.304;18.294;2023-01-04T05:43:08;102043.94;;;-4.18;71.64
76311;BME280;65120;59.304;18.294;2023-01-04T05:45:35;102031.38;;;-4.15;71.33
76311;BME280;65120;59.304;18.294;2023-01-04T05:48:02;102024.50;;;-4.16;71.68
76311;BME280;65120;59.304;18.294;2023-01-04T05:50:30;102022.13;;;-4.13;71.89
76311;BME280;65120;59.304;18.294;2023-01-04T05:52:57;102022.94;;;-4.14;71.75
76311;BME280;65120;59.304;18.294;2023-01-04T05:55:24;102019.19;;;-4.19;71.58
76311;BME280;65120;59.304;18.294;2023-01-04T05:57:52;102015.88;;;-4.18;71.83
76311;BME280;65120;59.304;18.294;2023-01-04T06:00:19;102026.09;;;-4.18;72.22
76311;BME280;65120;59.304;18.294;2023-01-04T06:02:46;102022.75;;;-4.17;71.84
76311;BME280;65120;59.304;18.294;2023-01-04T06:05:13;102029.59;;;-4.16;71.70
76311;BME280;65120;59.304;18.294;2023-01-04T06:07:41;102033.03;;;-4.16;72.28
76311;BME280;65120;59.304;18.294;2023-01-04T06:10:10;102031.56;;;-4.12;72.01
76311;BME280;65120;59.304;18.294;2023-01-04T06:12:38;102025.66;;;-4.11;72.33
76311;BME280;65120;59.304;18.294;2023-01-04T06:15:06;102021.34;;;-4.12;71.75
76311;BME280;65120;59.304;18.294;2023-01-04T06:17:34;102019.69;;;-4.12;72.10
76311;BME280;65120;59.304;18.294;2023-01-04T06:20:01;102021.44;;;-4.11;72.33
76311;BME280;65120;59.304;18.294;2023-01-04T06:22:28;102003.72;;;-4.22;71.93
76311;BME280;65120;59.304;18.294;2023-01-04T06:24:56;102032.63;;;-4.09;72.35
76311;BME280;65120;59.304;18.294;2023-01-04T06:27:23;102037.03;;;-4.06;72.13
76311;BME280;65120;59.304;18.294;2023-01-04T06:29:50;102037.03;;;-4.06;71.91
76311;BME280;65120;59.304;18.294;2023-01-04T06:32:17;102025.84;;;-4.08;71.73
76311;BME280;65120;59.304;18.294;2023-01-04T06:34:44;102029.19;;;-4.09;71.94
76311;BME280;65120;59.304;18.294;2023-01-04T06:37:11;102018.88;;;-4.11;71.93
76311;BME280;65120;59.304;18.294;2023-01-04T06:39:38;102025.03;;;-4.07;71.89
76311;BME280;65120;59.304;18.294;2023-01-04T06:42:07;102021.72;;;-4.06;72.05
76311;BME280;65120;59.304;18.294;2023-01-04T06:44:54;102016.50;;;-4.08;72.16
76311;BME280;65120;59.304;18.294;2023-01-04T06:47:21;102013.88;;;-4.09;72.42
76311;BME280;65120;59.304;18.294;2023-01-04T06:49:48;102015.56;;;-4.10;72.38
76311;BME280;65120;59.304;18.294;2023-01-04T06:52:15;102013.09;;;-4.08;72.51
76311;BME280;65120;59.304;18.294;2023-01-04T06:54:42;102001.19;;;-4.08;72.31
76311;BME280;65120;59.304;18.294;2023-01-04T06:57:11;102007.97;;;-4.08;72.74
76311;BME280;65120;59.304;18.294;2023-01-04T06:59:38;101997.78;;;-4.08;72.62
76311;BME280;65120;59.304;18.294;2023-01-04T07:02:05;101993.66;;;-4.06;72.29
76311;BME280;65120;59.304;18.294;2023-01-04T07:04:32;101981.28;;;-4.13;72.38
76311;BME280;65120;59.304;18.294;2023-01-04T07:06:59;101987.56;;;-4.08;72.58
76311;BME280;65120;59.304;18.294;2023-01-04T07:09:26;101978.41;;;-4.04;72.34
76311;BME280;65120;59.304;18.294;2023-01-04T07:11:53;101976.94;;;-4.01;72.29
76311;BME280;65120;59.304;18.294;2023-01-04T07:14:21;101972.03;;;-3.98;72.75
76311;BME280;65120;59.304;18.294;2023-01-04T07:16:48;101952.56;;;-3.96;72.78
76311;BME280;65120;59.304;18.294;2023-01-04T07:19:15;101939.03;;;-3.95;72.55
76311;BME280;65120;59.304;18.294;2023-01-04T07:21:42;101956.09;;;-3.94;72.75
76311;BME280;65120;59.304;18.294;2023-01-04T07:24:09;101960.59;;;-3.90;72.47
76311;BME280;65120;59.304;18.294;2023-01-04T07:26:36;101949.66;;;-3.87;72.54
76311;BME280;65120;59.304;18.294;2023-01-04T07:29:03;101941.31;;;-3.85;72.89
76311;BME280;65120;59.304;18.294;2023-01-04T07:31:45;101943.16;;;-3.82;72.66
76311;BME280;65120;59.304;18.294;2023-01-04T07:34:13;101938.16;;;-3.80;73.07
76311;BME280;65120;59.304;18.294;2023-01-04T07:36:40;101943.44;;;-3.77;72.87
76311;BME280;65120;59.304;18.294;2023-01-04T07:39:08;101924.13;;;-3.87;72.70
76311;BME280;65120;59.304;18.294;2023-01-04T07:41:37;101941.06;;;-3.74;72.93
76311;BME280;65120;59.304;18.294;2023-01-04T07:44:05;101924.06;;;-3.74;72.87
76311;BME280;65120;59.304;18.294;2023-01-04T07:46:32;101937.13;;;-3.69;72.75
76311;BME280;65120;59.304;18.294;2023-01-04T07:49:01;101937.28;;;-3.66;72.78
76311;BME280;65120;59.304;18.294;2023-01-04T07:51:28;101940.81;;;-3.64;72.83
76311;BME280;65120;59.304;18.294;2023-01-04T07:53:56;101924.16;;;-3.72;72.97
76311;BME280;65120;59.304;18.294;2023-01-04T07:56:23;101934.28;;;-3.59;72.73
76311;BME280;65120;59.304;18.294;2023-01-04T07:58:50;101931.91;;;-3.56;72.91
76311;BME280;65120;59.304;18.294;2023-01-04T08:01:22;101916.56;;;-3.56;73.11
76311;BME280;65120;59.304;18.294;2023-01-04T08:03:49;101890.25;;;-3.55;72.94
76311;BME280;65120;59.304;18.294;2023-01-04T08:06:19;101892.34;;;-3.48;72.88
76311;BME280;65120;59.304;18.294;2023-01-04T08:08:46;101895.00;;;-3.46;72.86
76311;BME280;65120;59.304;18.294;2023-01-04T08:11:17;101908.75;;;-3.44;72.84
76311;BME280;65120;59.304;18.294;2023-01-04T08:13:44;101911.47;;;-3.41;72.94
76311;BME280;65120;59.304;18.294;2023-01-04T08:16:18;101898.78;;;-3.40;72.96
76311;BME280;65120;59.304;18.294;2023-01-04T08:18:46;101896.22;;;-3.40;72.84
76311;BME280;65120;59.304;18.294;2023-01-04T08:21:13;101898.88;;;-3.38;72.99
76311;BME280;65120;59.304;18.294;2023-01-04T08:23:41;101902.38;;;-3.36;72.86
76311;BME280;65120;59.304;18.294;2023-01-04T08:26:10;101902.47;;;-3.34;72.99
76311;BME280;65120;59.304;18.294;2023-01-04T08:28:37;101899.09;;;-3.33;72.86
76311;BME280;65120;59.304;18.294;2023-01-04T08:31:06;101897.47;;;-3.33;72.93
76311;BME280;65120;59.304;18.294;2023-01-04T08:33:35;101897.63;;;-3.30;73.05
76311;BME280;65120;59.304;18.294;2023-01-04T08:36:10;101878.59;;;-3.35;72.91
76311;BME280;65120;59.304;18.294;2023-01-04T08:38:38;101879.97;;;-3.25;72.99
76311;BME280;65120;59.304;18.294;2023-01-04T08:41:06;101876.66;;;-3.24;73.19
76311;BME280;65120;59.304;18.294;2023-01-04T08:43:34;101871.59;;;-3.23;73.13
76311;BME280;65120;59.304;18.294;2023-01-04T08:46:01;101853.56;;;-3.26;73.13
76311;BME280;65120;59.304;18.294;2023-01-04T08:48:28;101862.53;;;-3.18;73.10
76311;BME280;65120;59.304;18.294;2023-01-04T08:50:57;101866.94;;;-3.15;73.16
76311;BME280;65120;59.304;18.294;2023-01-04T08:53:24;101862.78;;;-3.13;73.03
76311;BME280;65120;59.304;18.294;2023-01-04T08:55:52;101854.31;;;-3.12;73.02
76311;BME280;65120;59.304;18.294;2023-01-04T08:58:22;101836.16;;;-3.17;73.27
76311;BME280;65120;59.304;18.294;2023-01-04T09:00:49;101838.97;;;-3.12;73.24
76311;BME280;65120;59.304;18.294;2023-01-04T09:03:15;101859.84;;;-3.04;73.04
76311;BME280;65120;59.304;18.294;2023-01-04T09:05:42;101832.03;;;-3.14;73.64
76311;BME280;65120;59.304;18.294;2023-01-04T09:08:10;101852.41;;;-3.00;73.33
76311;BME280;65120;59.304;18.294;2023-01-04T09:10:38;101815.66;;;-3.18;73.36
76311;BME280;65120;59.304;18.294;2023-01-04T09:13:05;101855.22;;;-2.95;73.52
76311;BME280;65120;59.304;18.294;2023-01-04T09:15:34;101831.19;;;-2.99;73.22
76311;BME280;65120;59.304;18.294;2023-01-04T09:18:01;101835.00;;;-2.90;73.57
76311;BME280;65120;59.304;18.294;2023-01-04T09:20:30;101818.41;;;-2.99;73.25
76311;BME280;65120;59.304;18.294;2023-01-04T09:22:57;101834.44;;;-2.85;73.55
76311;BME280;65120;59.304;18.294;2023-01-04T09:25:24;101828.59;;;-2.82;73.45
76311;BME280;65120;59.304;18.294;2023-01-04T09:27:51;101828.00;;;-2.78;73.38
76311;BME280;65120;59.304;18.294;2023-01-04T09:30:18;101804.81;;;-2.81;73.52
76311;BME280;65120;59.304;18.294;2023-01-04T09:32:46;101773.81;;;-2.87;73.46
76311;BME280;65120;59.304;18.294;2023-01-04T09:35:13;101774.75;;;-2.85;73.30
76311;BME280;65120;59.304;18.294;2023-01-04T09:37:40;101796.19;;;-2.67;73.57
76311;BME280;65120;59.304;18.294;2023-01-04T09:40:11;101799.69;;;-2.65;73.37
76311;BME280;65120;59.304;18.294;2023-01-04T09:42:44;101782.59;;;-2.66;73.69
76311;BME280;65120;59.304;18.294;2023-01-04T09:45:16;101769.75;;;-2.67;73.53
76311;BME280;65120;59.304;18.294;2023-01-04T09:47:49;101770.03;;;-2.61;73.63
76311;BME280;65120;59.304;18.294;2023-01-04T09:50:23;101776.34;;;-2.55;73.75
76311;BME280;65120;59.304;18.294;2023-01-04T09:52:56;101769.47;;;-2.56;73.48
76311;BME280;65120;59.304;18.294;2023-01-04T09:55:29;101766.25;;;-2.52;73.74
76311;BME280;65120;59.304;18.294;2023-01-04T09:58:01;101765.53;;;-2.49;73.32
76311;BME280;65120;59.304;18.294;2023-01-04T10:00:31;101738.78;;;-2.56;73.55
76311;BME280;65120;59.304;18.294;2023-01-04T10:03:04;101752.19;;;-2.43;73.36
76311;BME280;65120;59.304;18.294;2023-01-04T10:05:36;101735.06;;;-2.44;73.39
76311;BME280;65120;59.304;18.294;2023-01-04T10:08:11;101729.28;;;-2.40;73.64
76311;BME280;65120;59.304;18.294;2023-01-04T10:10:48;101727.69;;;-2.38;73.37
76311;BME280;65120;59.304;18.294;2023-01-04T10:13:32;101718.34;;;-2.38;73.64
76311;BME280;65120;59.304;18.294;2023-01-04T10:16:12;101714.19;;;-2.36;73.54
76311;BME280;65120;59.304;18.294;2023-01-04T10:18:48;101705.53;;;-2.38;73.39
76311;BME280;65120;59.304;18.294;2023-01-04T10:21:33;101694.63;;;-2.34;73.68
76311;BME280;65120;59.304;18.294;2023-01-04T10:24:17;101686.19;;;-2.33;73.64
76311;BME280;65120;59.304;18.294;2023-01-04T10:26:58;101685.38;;;-2.32;73.49
76311;BME280;65120;59.304;18.294;2023-01-04T10:29:39;101676.97;;;-2.29;74.02
76311;BME280;65120;59.304;18.294;2023-01-04T10:32:16;101671.13;;;-2.27;73.83
76311;BME280;65120;59.304;18.294;2023-01-04T10:34:46;101663.44;;;-2.27;73.63
76311;BME280;65120;59.304;18.294;2023-01-04T10:37:17;101661.16;;;-2.20;73.88
76311;BME280;65120;59.304;18.294;2023-01-04T10:39:46;101644.22;;;-2.18;73.88
76311;BME280;65120;59.304;18.294;2023-01-04T10:42:19;101635.66;;;-2.19;73.61
76311;BME280;65120;59.304;18.294;2023-01-04T10:45:01;101607.63;;;-2.34;73.83
76311;BME280;65120;59.304;18.294;2023-01-04T10:47:34;101642.88;;;-2.10;74.17
76311;BME280;65120;59.304;18.294;2023-01-04T10:50:13;101641.25;;;-2.08;74.05
76311;BME280;65120;59.304;18.294;2023-01-04T10:52:43;101633.66;;;-2.07;74.04
76311;BME280;65120;59.304;18.294;2023-01-04T10:55:15;101632.06;;;-2.05;74.56
76311;BME280;65120;59.304;18.294;2023-01-04T10:57:47;101623.66;;;-2.02;74.46
76311;BME280;65120;59.304;18.294;2023-01-04T11:00:19;101614.94;;;-2.06;74.31
76311;BME280;65120;59.304;18.294;2023-01-04T11:02:54;101616.84;;;-2.01;74.19
76311;BME280;65120;59.304;18.294;2023-01-04T11:05:28;101610.25;;;-1.96;74.08
76311;BME280;65120;59.304;18.294;2023-01-04T11:07:59;101607.75;;;-1.95;74.61
76311;BME280;65120;59.304;18.294;2023-01-04T11:10:30;101599.34;;;-1.92;74.64
76311;BME280;65120;59.304;18.294;2023-01-04T11:13:00;101588.28;;;-1.91;74.41
76311;BME280;65120;59.304;18.294;2023-01-04T11:15:27;101585.06;;;-1.87;74.47
76311;BME280;65120;59.304;18.294;2023-01-04T11:17:55;101578.28;;;-1.85;74.40
76311;BME280;65120;59.304;18.294;2023-01-04T11:20:23;101564.84;;;-1.81;74.65
76311;BME280;65120;59.304;18.294;2023-01-04T11:22:54;101557.06;;;-1.83;74.41
76311;BME280;65120;59.304;18.294;2023-01-04T11:25:25;101552.09;;;-1.79;74.57
76311;BME280;65120;59.304;18.294;2023-01-04T11:27:58;101542.06;;;-1.75;74.44
76311;BME280;65120;59.304;18.294;2023-01-04T11:30:31;101543.00;;;-1.73;74.85
76311;BME280;65120;59.304;18.294;2023-01-04T11:33:02;101534.50;;;-1.72;74.68
76311;BME280;65120;59.304;18.294;2023-01-04T11:35:40;101526.00;;;-1.71;74.62
76311;BME280;65120;59.304;18.294;2023-01-04T11:38:13;101516.53;;;-1.73;74.79
76311;BME280;65120;59.304;18.294;2023-01-04T11:40:57;101514.97;;;-1.70;74.47
76311;BME280;65120;59.304;18.294;2023-01-04T11:43:25;101503.91;;;-1.69;74.88
76311;BME280;65120;59.304;18.294;2023-01-04T11:46:03;101492.84;;;-1.68;74.28
76311;BME280;65120;59.304;18.294;2023-01-04T11:48:37;101478.28;;;-1.69;74.51
76311;BME280;65120;59.304;18.294;2023-01-04T11:51:08;101482.78;;;-1.63;74.71
76311;BME280;65120;59.304;18.294;2023-01-04T11:53:42;101472.63;;;-1.62;74.94
76311;BME280;65120;59.304;18.294;2023-01-04T11:56:19;101470.97;;;-1.60;74.70
76311;BME280;65120;59.304;18.294;2023-01-04T11:59:07;101467.66;;;-1.57;75.04
76311;BME280;65120;59.304;18.294;2023-01-04T12:01:38;101453.03;;;-1.60;75.02
76311;BME280;65120;59.304;18.294;2023-01-04T12:04:10;101448.13;;;-1.55;74.74
76311;BME280;65120;59.304;18.294;2023-01-04T12:06:40;101452.50;;;-1.52;74.95
76311;BME280;65120;59.304;18.294;2023-01-04T12:09:14;101442.28;;;-1.51;75.13
76311;BME280;65120;59.304;18.294;2023-01-04T12:11:43;101438.13;;;-1.49;75.11
76311;BME280;65120;59.304;18.294;2023-01-04T12:14:19;101438.19;;;-1.47;75.52
76311;BME280;65120;59.304;18.294;2023-01-04T12:17:00;101421.06;;;-1.48;75.86
76311;BME280;65120;59.304;18.294;2023-01-04T12:19:29;101416.94;;;-1.45;75.48
76311;BME280;65120;59.304;18.294;2023-01-04T12:21:58;101391.00;;;-1.52;75.91
76311;BME280;65120;59.304;18.294;2023-01-04T12:24:29;101404.41;;;-1.37;75.68
76311;BME280;65120;59.304;18.294;2023-01-04T12:26:57;101394.28;;;-1.34;76.13
76311;BME280;65120;59.304;18.294;2023-01-04T12:29:43;101391.88;;;-1.31;75.71
76311;BME280;65120;59.304;18.294;2023-01-04T12:32:42;101377.41;;;-1.29;75.69
76311;BME280;65120;59.304;18.294;2023-01-04T12:38:59;101369.09;;;-1.23;76.19
76311;BME280;65120;59.304;18.294;2023-01-04T12:47:52;101352.13;;;-1.20;76.14
76311;BME280;65120;59.304;18.294;2023-01-04T12:57:10;101325.09;;;-1.11;76.42
76311;BME280;65120;59.304;18.294;2023-01-04T12:59:55;101306.34;;;-1.10;76.33
76311;BME280;65120;59.304;18.294;2023-01-04T13:02:22;101319.28;;;-1.07;76.35
76311;BME280;65120;59.304;18.294;2023-01-04T13:04:52;101302.97;;;-1.09;76.47
76311;BME280;65120;59.304;18.294;2023-01-04T13:07:25;101299.69;;;-1.05;76.78
76311;BME280;65120;59.304;18.294;2023-01-04T13:09:57;101303.19;;;-1.03;76.97
76311;BME280;65120;59.304;18.294;2023-01-04T13:12:45;101296.47;;;-1.00;76.68
76311;BME280;65120;59.304;18.294;2023-01-04T13:15:21;101297.50;;;-0.96;77.21
76311;BME280;65120;59.304;18.294;2023-01-04T13:17:49;101283.06;;;-0.93;76.83
76311;BME280;65120;59.304;18.294;2023-01-04T13:20:21;101277.19;;;-0.90;76.91